Time;durP1;ratioP1;P1;durP2;ratioP2;P2;SDS_P1;SDS_P2;PMS_P1;PMS_P2;Temp;Humidity;BMP_temperature;BMP_pressure;BME280_temperature;BME280_humidity;BME280_pressure;Samples;Min_cycle;Max_cycle;Signal;HPM_P1;HPM_P2
2022/12/09 00:01:03;;;;;;;;;;;2.80;91.10;;;;;;5035252;28;20422;-76
2022/12/09 00:03:28;;;;;;;;;;;2.80;91.10;;;;;;5056382;28;21460;-77
2022/12/09 00:05:54;;;;;;;;;;;2.80;91.10;;;;;;5034118;28;20352;-76
2022/12/09 00:08:19;;;;;;;;;;;2.80;91.10;;;;;;5053368;28;19917;-76
2022/12/09 00:10:45;;;;;;;;;;;2.80;91.10;;;;;;5057858;28;19932;-76
2022/12/09 00:13:11;;;;;;;;;;;2.70;91.00;;;;;;5054995;28;19924;-77
2022/12/09 00:15:40;;;;;;;;;;;2.80;91.10;;;;;;5053698;28;20442;-76
2022/12/09 00:18:05;;;;;;;;;;;2.70;91.00;;;;;;5013256;28;19920;-76
2022/12/09 00:20:31;;;;;;;;;;;2.70;91.10;;;;;;5055538;28;19970;-77
2022/12/09 00:22:56;;;;;;;;;;;2.70;91.10;;;;;;5037285;28;19972;-77
2022/12/09 00:25:22;;;;;;;;;;;2.70;91.10;;;;;;5055683;28;19928;-76
2022/12/09 00:27:47;;;;;;;;;;;2.70;91.10;;;;;;5055527;28;19971;-77
2022/12/09 00:30:13;;;;;;;;;;;2.70;91.10;;;;;;5053948;28;20236;-77
2022/12/09 00:32:38;;;;;;;;;;;2.70;91.10;;;;;;5055278;28;19925;-76
2022/12/09 00:35:04;;;;;;;;;;;2.70;91.10;;;;;;5054387;28;20393;-76
2022/12/09 00:37:29;;;;;;;;;;;2.70;91.10;;;;;;5038711;28;19988;-76
2022/12/09 00:39:55;;;;;;;;;;;2.70;91.10;;;;;;5058854;28;20454;-76
2022/12/09 00:42:20;;;;;;;;;;;2.70;91.10;;;;;;5053064;28;20036;-77
2022/12/09 00:44:46;;;;;;;;;;;2.70;91.10;;;;;;5052213;28;20140;-77
2022/12/09 00:47:11;;;;;;;;;;;2.70;91.10;;;;;;5037577;28;19925;-77
2022/12/09 00:49:37;;;;;;;;;;;2.70;91.10;;;;;;5038597;28;19917;-77
2022/12/09 00:52:02;;;;;;;;;;;2.70;91.10;;;;;;5039689;28;20346;-76
2022/12/09 00:54:28;;;;;;;;;;;2.70;91.10;;;;;;5052766;28;21167;-76
2022/12/09 00:56:55;;;;;;;;;;;2.60;91.00;;;;;;5022145;28;19924;-76
2022/12/09 00:59:21;;;;;;;;;;;2.60;91.00;;;;;;5054392;28;19947;-77
2022/12/09 01:01:46;;;;;;;;;;;2.60;91.10;;;;;;5053895;28;19917;-77
2022/12/09 01:04:12;;;;;;;;;;;2.60;91.10;;;;;;5055320;28;19904;-77
2022/12/09 01:06:38;;;;;;;;;;;2.60;91.10;;;;;;5020112;28;19928;-76
2022/12/09 01:09:03;;;;;;;;;;;2.60;91.10;;;;;;5032464;28;19921;-77
2022/12/09 01:11:29;;;;;;;;;;;2.60;91.10;;;;;;5054601;28;19928;-77
2022/12/09 01:13:56;;;;;;;;;;;2.60;91.10;;;;;;5021973;28;19921;-77
2022/12/09 01:16:23;;;;;;;;;;;2.60;91.10;;;;;;5054430;28;20482;-76
2022/12/09 01:18:49;;;;;;;;;;;2.50;91.10;;;;;;5052984;28;19967;-76
2022/12/09 01:21:14;;;;;;;;;;;2.50;91.10;;;;;;5056082;28;19925;-76
2022/12/09 01:23:40;;;;;;;;;;;2.50;91.10;;;;;;5054727;28;19917;-77
2022/12/09 01:26:06;;;;;;;;;;;2.50;91.10;;;;;;5054335;28;19916;-77
2022/12/09 01:28:32;;;;;;;;;;;2.50;91.10;;;;;;5036885;28;19992;-77
2022/12/09 01:31:03;;;;;;;;;;;2.50;91.10;;;;;;5054254;28;19928;-76
2022/12/09 01:33:29;;;;;;;;;;;2.50;91.10;;;;;;5021574;28;19936;-76
2022/12/09 01:35:54;;;;;;;;;;;2.50;91.10;;;;;;5039255;28;20080;-77
2022/12/09 01:38:20;;;;;;;;;;;2.50;91.10;;;;;;5042097;28;19931;-76
2022/12/09 01:40:46;;;;;;;;;;;2.50;91.10;;;;;;5055467;28;19939;-76
2022/12/09 01:43:17;;;;;;;;;;;2.50;91.10;;;;;;5056714;28;19916;-77
2022/12/09 01:45:43;;;;;;;;;;;2.50;91.10;;;;;;5056124;28;19956;-76
2022/12/09 01:48:12;;;;;;;;;;;2.50;91.10;;;;;;5041013;28;19917;-77
2022/12/09 01:50:40;;;;;;;;;;;2.50;91.10;;;;;;5057971;28;20650;-76
2022/12/09 01:53:05;;;;;;;;;;;2.40;91.10;;;;;;5057040;28;19916;-76
2022/12/09 01:55:31;;;;;;;;;;;2.50;91.10;;;;;;5054900;28;19980;-76
2022/12/09 01:57:56;;;;;;;;;;;2.50;91.10;;;;;;5055303;28;19925;-76
2022/12/09 02:00:22;;;;;;;;;;;2.40;91.10;;;;;;5057456;28;20070;-76
2022/12/09 02:02:48;;;;;;;;;;;2.50;91.10;;;;;;5057143;28;19917;-77
2022/12/09 02:05:13;;;;;;;;;;;2.40;91.10;;;;;;5052268;28;19921;-76
2022/12/09 02:07:39;;;;;;;;;;;2.50;91.20;;;;;;5042891;28;19919;-76
2022/12/09 02:10:06;;;;;;;;;;;2.40;91.10;;;;;;5055580;28;20161;-77
2022/12/09 02:12:32;;;;;;;;;;;2.40;91.10;;;;;;5039153;28;19919;-77
2022/12/09 02:15:04;;;;;;;;;;;2.50;91.20;;;;;;5055895;28;20207;-77
2022/12/09 02:17:30;;;;;;;;;;;2.40;91.10;;;;;;5033204;28;20441;-76
2022/12/09 02:20:00;;;;;;;;;;;2.40;91.10;;;;;;5052550;28;19931;-77
2022/12/09 02:22:33;;;;;;;;;;;2.40;91.10;;;;;;5051174;28;19917;-76
2022/12/09 02:25:17;;;;;;;;;;;2.40;91.10;;;;;;5033703;28;19920;-77
2022/12/09 02:28:06;;;;;;;;;;;2.40;91.10;;;;;;5054366;28;19950;-77
2022/12/09 02:30:50;;;;;;;;;;;2.40;91.10;;;;;;5007395;28;19967;-77
2022/12/09 02:33:28;;;;;;;;;;;2.40;91.10;;;;;;5056689;28;19917;-76
2022/12/09 02:35:54;;;;;;;;;;;2.40;91.10;;;;;;5043157;28;19967;-76
2022/12/09 02:38:21;;;;;;;;;;;2.40;91.10;;;;;;5040428;28;20014;-77
2022/12/09 02:40:49;;;;;;;;;;;2.30;91.10;;;;;;5057635;28;19917;-76
2022/12/09 02:43:14;;;;;;;;;;;2.30;91.10;;;;;;5054103;28;19970;-76
2022/12/09 02:45:40;;;;;;;;;;;2.30;91.20;;;;;;5041152;28;19920;-77
2022/12/09 02:48:05;;;;;;;;;;;2.30;91.20;;;;;;5041860;28;19969;-76
2022/12/09 02:50:32;;;;;;;;;;;2.30;91.20;;;;;;5041166;28;19913;-76
2022/12/09 02:52:58;;;;;;;;;;;2.30;91.20;;;;;;5038505;28;19928;-76
2022/12/09 02:55:23;;;;;;;;;;;2.30;91.20;;;;;;5038119;28;19929;-76
2022/12/09 02:57:54;;;;;;;;;;;2.30;91.20;;;;;;5057558;28;19931;-76
2022/12/09 03:00:19;;;;;;;;;;;2.30;91.20;;;;;;5054569;28;19947;-76
2022/12/09 03:02:46;;;;;;;;;;;2.30;91.10;;;;;;5023465;28;19927;-77
2022/12/09 03:05:17;;;;;;;;;;;2.30;91.20;;;;;;5037467;28;19917;-76
2022/12/09 03:07:46;;;;;;;;;;;2.30;91.20;;;;;;5047384;28;20060;-77
2022/12/09 03:10:15;;;;;;;;;;;2.30;91.20;;;;;;5053614;28;19921;-77
2022/12/09 03:12:41;;;;;;;;;;;2.30;91.20;;;;;;5040653;28;19921;-76
2022/12/09 03:15:07;;;;;;;;;;;2.30;91.20;;;;;;5055239;28;20430;-77
2022/12/09 03:17:33;;;;;;;;;;;2.30;91.20;;;;;;5039685;28;19925;-77
2022/12/09 03:20:02;;;;;;;;;;;2.30;91.20;;;;;;5056368;28;19940;-77
2022/12/09 03:22:28;;;;;;;;;;;2.20;91.20;;;;;;5040244;28;20352;-77
2022/12/09 03:24:59;;;;;;;;;;;2.30;91.20;;;;;;5041271;28;19967;-76
2022/12/09 03:27:27;;;;;;;;;;;2.30;91.20;;;;;;5036990;28;19925;-78
2022/12/09 03:29:52;;;;;;;;;;;2.20;91.20;;;;;;5038563;28;19999;-77
2022/12/09 03:32:18;;;;;;;;;;;2.20;91.20;;;;;;5052661;28;20401;-77
2022/12/09 03:34:43;;;;;;;;;;;2.20;91.20;;;;;;5057836;28;19931;-77
2022/12/09 03:37:09;;;;;;;;;;;2.20;91.20;;;;;;5021743;28;19929;-76
2022/12/09 03:39:35;;;;;;;;;;;2.20;91.20;;;;;;5043547;28;19913;-77
2022/12/09 03:42:01;;;;;;;;;;;2.20;91.20;;;;;;5038836;28;19916;-76
2022/12/09 03:44:31;;;;;;;;;;;2.20;91.20;;;;;;5036654;28;19951;-76
2022/12/09 03:46:56;;;;;;;;;;;2.20;91.20;;;;;;5040552;28;19976;-76
2022/12/09 03:49:22;;;;;;;;;;;2.10;91.20;;;;;;5056950;28;19978;-77
2022/12/09 03:51:48;;;;;;;;;;;2.10;91.20;;;;;;5013825;28;19939;-77
2022/12/09 03:54:16;;;;;;;;;;;2.10;91.20;;;;;;5054047;28;19956;-76
2022/12/09 03:56:43;;;;;;;;;;;2.10;91.20;;;;;;5041653;28;20676;-76
2022/12/09 03:59:09;;;;;;;;;;;2.10;91.20;;;;;;5054037;28;19917;-76
2022/12/09 04:01:35;;;;;;;;;;;2.10;91.20;;;;;;5040464;28;19928;-77
2022/12/09 04:04:00;;;;;;;;;;;2.10;91.20;;;;;;5024287;28;19976;-76
2022/12/09 04:06:26;;;;;;;;;;;2.10;91.20;;;;;;5056954;28;19923;-77
2022/12/09 04:08:51;;;;;;;;;;;2.10;91.20;;;;;;5054889;28;20415;-76
2022/12/09 04:11:17;;;;;;;;;;;2.10;91.20;;;;;;5054492;28;19928;-77
2022/12/09 04:13:42;;;;;;;;;;;2.10;91.20;;;;;;5039848;28;19948;-77
2022/12/09 04:16:08;;;;;;;;;;;2.10;91.20;;;;;;5055529;28;20414;-77
2022/12/09 04:18:34;;;;;;;;;;;2.10;91.20;;;;;;5058609;28;19917;-76
2022/12/09 04:20:59;;;;;;;;;;;2.10;91.20;;;;;;5055794;28;19940;-77
2022/12/09 04:23:25;;;;;;;;;;;2.20;91.20;;;;;;5055637;28;19933;-76
2022/12/09 04:25:50;;;;;;;;;;;2.20;91.30;;;;;;5040464;28;19917;-77
2022/12/09 04:28:16;;;;;;;;;;;2.10;91.20;;;;;;5037845;28;19921;-77
2022/12/09 04:30:45;;;;;;;;;;;2.20;91.20;;;;;;5032940;28;20437;-78
2022/12/09 04:33:10;;;;;;;;;;;2.20;91.20;;;;;;5026096;28;19917;-77
2022/12/09 04:35:36;;;;;;;;;;;2.20;91.20;;;;;;5044550;28;19920;-78
2022/12/09 04:38:01;;;;;;;;;;;2.20;91.20;;;;;;5049975;28;19971;-77
2022/12/09 04:40:27;;;;;;;;;;;2.20;91.20;;;;;;5007370;28;19921;-77
2022/12/09 04:42:52;;;;;;;;;;;2.20;91.30;;;;;;5017309;28;20344;-76
2022/12/09 04:45:18;;;;;;;;;;;2.10;91.20;;;;;;5038018;28;19917;-77
2022/12/09 04:47:43;;;;;;;;;;;2.10;91.20;;;;;;5023021;28;19974;-77
2022/12/09 04:50:09;;;;;;;;;;;2.10;91.30;;;;;;5038468;28;20715;-76
2022/12/09 04:52:34;;;;;;;;;;;2.10;91.20;;;;;;5017701;28;19924;-77
2022/12/09 04:55:00;;;;;;;;;;;2.10;91.20;;;;;;5040428;28;19956;-77
2022/12/09 04:57:25;;;;;;;;;;;2.10;91.20;;;;;;5039893;28;19928;-76
2022/12/09 04:59:51;;;;;;;;;;;2.10;91.20;;;;;;5006071;28;19924;-77
2022/12/09 05:02:16;;;;;;;;;;;2.00;91.20;;;;;;5008260;28;19928;-77
2022/12/09 05:04:43;;;;;;;;;;;2.00;91.20;;;;;;5016024;28;19925;-76
2022/12/09 05:07:09;;;;;;;;;;;2.00;91.20;;;;;;5021995;28;19923;-76
2022/12/09 05:09:35;;;;;;;;;;;2.00;91.20;;;;;;5042302;28;20426;-77
2022/12/09 05:12:00;;;;;;;;;;;2.00;91.20;;;;;;5044607;28;19917;-77
2022/12/09 05:14:26;;;;;;;;;;;2.00;91.20;;;;;;5045273;28;19989;-78
2022/12/09 05:16:52;;;;;;;;;;;1.90;91.20;;;;;;5048119;28;19975;-78
2022/12/09 05:19:17;;;;;;;;;;;1.90;91.20;;;;;;5014152;28;19925;-77
2022/12/09 05:21:43;;;;;;;;;;;1.90;91.20;;;;;;5047044;28;19917;-77
2022/12/09 05:24:08;;;;;;;;;;;1.90;91.20;;;;;;5046755;28;19978;-77
2022/12/09 05:26:34;;;;;;;;;;;1.80;91.20;;;;;;5045791;28;19917;-78
2022/12/09 05:28:59;;;;;;;;;;;1.80;91.40;;;;;;5028594;28;20379;-77
2022/12/09 05:31:25;;;;;;;;;;;1.80;91.20;;;;;;5029036;28;19928;-77
2022/12/09 05:33:50;;;;;;;;;;;1.90;91.30;;;;;;5011037;28;20382;-77
2022/12/09 05:36:17;;;;;;;;;;;1.80;91.20;;;;;;5012964;28;19925;-78
2022/12/09 05:38:43;;;;;;;;;;;1.80;91.20;;;;;;5030944;28;19952;-78
2022/12/09 05:41:08;;;;;;;;;;;1.80;91.20;;;;;;5026696;28;19917;-78
2022/12/09 05:43:34;;;;;;;;;;;1.80;91.30;;;;;;5043006;28;19991;-79
2022/12/09 05:45:59;;;;;;;;;;;1.80;91.20;;;;;;5045993;28;20362;-78
2022/12/09 05:48:25;;;;;;;;;;;1.80;91.30;;;;;;5024716;28;19925;-78
2022/12/09 05:51:01;;;;;;;;;;;1.80;91.30;;;;;;5009690;28;19983;-78
2022/12/09 05:53:26;;;;;;;;;;;1.80;91.30;;;;;;5026124;28;19916;-77
2022/12/09 05:55:52;;;;;;;;;;;1.80;91.30;;;;;;5030946;28;20437;-79
2022/12/09 05:58:17;;;;;;;;;;;1.70;91.20;;;;;;5047844;28;19917;-78
2022/12/09 06:00:43;;;;;;;;;;;1.80;91.30;;;;;;5030593;28;19917;-78
2022/12/09 06:03:08;;;;;;;;;;;1.80;91.30;;;;;;5047101;28;19916;-78
2022/12/09 06:05:34;;;;;;;;;;;1.80;91.30;;;;;;5047721;28;19921;-78
2022/12/09 06:08:00;;;;;;;;;;;1.80;91.30;;;;;;5030705;28;19921;-78
2022/12/09 06:10:25;;;;;;;;;;;1.80;91.30;;;;;;5049257;28;19943;-77
2022/12/09 06:12:54;;;;;;;;;;;1.80;91.30;;;;;;5050955;28;19917;-77
2022/12/09 06:15:20;;;;;;;;;;;1.70;91.30;;;;;;5047863;28;19940;-76
2022/12/09 06:17:45;;;;;;;;;;;1.80;91.30;;;;;;5029372;28;20146;-79
2022/12/09 06:20:11;;;;;;;;;;;1.80;91.30;;;;;;5050511;28;20053;-78
2022/12/09 06:22:36;;;;;;;;;;;1.80;91.30;;;;;;5053280;28;19938;-77
2022/12/09 06:25:02;;;;;;;;;;;1.80;91.30;;;;;;5035336;28;19928;-78
2022/12/09 06:27:27;;;;;;;;;;;1.80;91.30;;;;;;5047977;28;19921;-78
2022/12/09 06:29:53;;;;;;;;;;;1.80;91.30;;;;;;5049291;28;19917;-78
2022/12/09 06:32:18;;;;;;;;;;;1.80;91.30;;;;;;5047473;28;19919;-76
2022/12/09 06:34:44;;;;;;;;;;;1.80;91.30;;;;;;5047133;28;19920;-78
2022/12/09 06:37:09;;;;;;;;;;;1.80;91.30;;;;;;5051127;28;19925;-77
2022/12/09 06:39:35;;;;;;;;;;;1.80;91.30;;;;;;5036921;28;19976;-77
2022/12/09 06:42:03;;;;;;;;;;;1.80;91.30;;;;;;5047270;28;19984;-77
2022/12/09 06:44:28;;;;;;;;;;;1.80;91.30;;;;;;5031673;28;19998;-77
2022/12/09 06:46:54;;;;;;;;;;;1.80;91.30;;;;;;5034351;28;19925;-78
2022/12/09 06:49:19;;;;;;;;;;;1.80;91.30;;;;;;5050745;28;19917;-77
2022/12/09 06:51:45;;;;;;;;;;;1.90;91.30;;;;;;5016740;28;19920;-76
2022/12/09 06:54:10;;;;;;;;;;;1.90;91.30;;;;;;5030336;28;20428;-76
2022/12/09 06:56:36;;;;;;;;;;;1.90;91.30;;;;;;5053010;28;19921;-77
2022/12/09 06:59:04;;;;;;;;;;;1.90;91.30;;;;;;5051263;28;19931;-77
2022/12/09 07:01:29;;;;;;;;;;;1.90;91.30;;;;;;5054059;28;19956;-77
2022/12/09 07:03:55;;;;;;;;;;;1.90;91.30;;;;;;5053674;28;19920;-76
2022/12/09 07:06:26;;;;;;;;;;;1.90;91.30;;;;;;5050573;28;19917;-76
2022/12/09 07:08:52;;;;;;;;;;;1.90;91.30;;;;;;5049166;28;20591;-76
2022/12/09 07:11:17;;;;;;;;;;;1.90;91.30;;;;;;5036069;28;19917;-78
2022/12/09 07:13:43;;;;;;;;;;;1.90;91.30;;;;;;5054951;28;19921;-77
2022/12/09 07:16:08;;;;;;;;;;;1.90;91.30;;;;;;5032132;28;19968;-76
2022/12/09 07:18:34;;;;;;;;;;;1.90;91.30;;;;;;5041397;28;19921;-78
2022/12/09 07:21:09;;;;;;;;;;;1.80;91.30;;;;;;5037070;28;19917;-77
2022/12/09 07:23:35;;;;;;;;;;;1.80;91.30;;;;;;5036978;28;19924;-77
2022/12/09 07:26:01;;;;;;;;;;;1.80;91.30;;;;;;5047906;28;19945;-78
2022/12/09 07:28:27;;;;;;;;;;;1.80;91.30;;;;;;5050728;28;19916;-76
2022/12/09 07:30:53;;;;;;;;;;;1.80;91.30;;;;;;5033462;28;20490;-76
2022/12/09 07:33:18;;;;;;;;;;;1.80;91.30;;;;;;5032662;28;19906;-77
2022/12/09 07:35:44;;;;;;;;;;;1.80;91.30;;;;;;5032983;28;19921;-77
2022/12/09 07:38:09;;;;;;;;;;;1.80;91.30;;;;;;5032952;28;20210;-76
2022/12/09 07:40:36;;;;;;;;;;;1.80;91.30;;;;;;5037992;28;19923;-78
2022/12/09 07:43:01;;;;;;;;;;;1.80;91.60;;;;;;5034080;28;20494;-77
2022/12/09 07:45:27;;;;;;;;;;;1.80;91.30;;;;;;5032250;28;19961;-77
2022/12/09 07:47:52;;;;;;;;;;;1.80;91.30;;;;;;5034192;28;19917;-78
2022/12/09 07:50:18;;;;;;;;;;;1.80;91.30;;;;;;5032254;28;19913;-77
2022/12/09 07:52:43;;;;;;;;;;;1.80;91.30;;;;;;5041375;28;19928;-77
2022/12/09 07:55:09;;;;;;;;;;;1.80;91.30;;;;;;5033972;28;19953;-76
2022/12/09 07:57:35;;;;;;;;;;;1.80;91.30;;;;;;5034530;28;20020;-77
2022/12/09 08:00:00;;;;;;;;;;;1.80;91.30;;;;;;5031655;28;20470;-78
2022/12/09 08:02:26;;;;;;;;;;;1.80;91.30;;;;;;5026194;28;19924;-78
2022/12/09 08:04:51;;;;;;;;;;;1.80;91.30;;;;;;5032152;28;19921;-76
2022/12/09 08:07:17;;;;;;;;;;;1.80;91.30;;;;;;5034355;28;20106;-77
2022/12/09 08:09:42;;;;;;;;;;;1.80;91.30;;;;;;5033361;28;19928;-77
2022/12/09 08:12:09;;;;;;;;;;;1.90;91.30;;;;;;5031551;28;19917;-77
2022/12/09 08:14:35;;;;;;;;;;;1.90;91.30;;;;;;5034093;28;20621;-78
2022/12/09 08:17:00;;;;;;;;;;;1.90;91.30;;;;;;5030819;28;19925;-77
2022/12/09 08:19:26;;;;;;;;;;;1.90;91.30;;;;;;5031923;28;19921;-77
2022/12/09 08:21:51;;;;;;;;;;;2.00;91.30;;;;;;5023916;28;20053;-76
2022/12/09 08:24:16;;;;;;;;;;;1.90;91.30;;;;;;5033532;28;19961;-78
2022/12/09 08:26:42;;;;;;;;;;;2.00;91.30;;;;;;5030593;28;19921;-77
2022/12/09 08:29:11;;;;;;;;;;;2.00;91.30;;;;;;5032376;28;19928;-78
2022/12/09 08:31:36;;;;;;;;;;;2.00;91.30;;;;;;5027811;28;19932;-78
2022/12/09 08:34:04;;;;;;;;;;;2.00;91.30;;;;;;5034635;28;19917;-78
2022/12/09 08:36:30;;;;;;;;;;;2.10;91.30;;;;;;5032687;28;19943;-77
2022/12/09 08:38:59;;;;;;;;;;;2.10;91.30;;;;;;5035117;28;20379;-76
2022/12/09 08:41:34;;;;;;;;;;;2.10;91.30;;;;;;5031687;28;19924;-78
2022/12/09 08:44:02;;;;;;;;;;;2.10;91.30;;;;;;5029863;28;19976;-77
2022/12/09 08:46:28;;;;;;;;;;;2.10;91.30;;;;;;5034791;28;19921;-77
2022/12/09 08:48:53;;;;;;;;;;;2.20;91.30;;;;;;5031625;28;19928;-77
2022/12/09 08:51:19;;;;;;;;;;;2.20;91.30;;;;;;5033517;28;20331;-75
2022/12/09 08:53:44;;;;;;;;;;;2.20;91.30;;;;;;5033421;28;19989;-77
2022/12/09 08:56:10;;;;;;;;;;;2.20;91.30;;;;;;5029141;28;19928;-76
2022/12/09 08:58:36;;;;;;;;;;;2.30;91.30;;;;;;5029939;28;20447;-78
2022/12/09 09:01:02;;;;;;;;;;;2.30;91.30;;;;;;5028958;28;19917;-78
2022/12/09 09:03:27;;;;;;;;;;;2.30;91.30;;;;;;5028363;28;19917;-78
2022/12/09 09:05:53;;;;;;;;;;;2.30;91.30;;;;;;5016203;28;19948;-78
2022/12/09 09:08:18;;;;;;;;;;;2.30;91.30;;;;;;5030573;28;19925;-78
2022/12/09 09:10:44;;;;;;;;;;;2.30;91.30;;;;;;5021627;28;20591;-77
2022/12/09 09:13:09;;;;;;;;;;;2.30;91.30;;;;;;5020334;28;19921;-77
2022/12/09 09:15:37;;;;;;;;;;;2.30;91.30;;;;;;5035640;28;19925;-78
2022/12/09 09:18:02;;;;;;;;;;;2.30;91.30;;;;;;5038753;28;20427;-78
2022/12/09 09:20:28;;;;;;;;;;;2.30;91.30;;;;;;5040757;28;20788;-78
2022/12/09 09:22:53;;;;;;;;;;;2.30;91.30;;;;;;5044257;28;20306;-77
2022/12/09 09:25:19;;;;;;;;;;;2.30;91.20;;;;;;5040866;28;19929;-76
2022/12/09 09:27:44;;;;;;;;;;;2.40;91.30;;;;;;5043602;28;20574;-78
2022/12/09 09:30:10;;;;;;;;;;;2.40;91.20;;;;;;5020970;28;19917;-78
2022/12/09 09:32:35;;;;;;;;;;;2.40;91.30;;;;;;5035647;28;19917;-78
2022/12/09 09:35:01;;;;;;;;;;;2.40;91.20;;;;;;5042140;28;19925;-77
2022/12/09 09:37:26;;;;;;;;;;;2.50;91.30;;;;;;5041380;28;19929;-77
2022/12/09 09:39:52;;;;;;;;;;;2.50;91.30;;;;;;5040481;28;19955;-78
2022/12/09 09:42:22;;;;;;;;;;;2.50;91.30;;;;;;5041931;28;21645;-79
2022/12/09 09:44:48;;;;;;;;;;;2.50;91.30;;;;;;5044380;28;19936;-77
2022/12/09 09:47:24;;;;;;;;;;;2.50;91.30;;;;;;5044152;28;20026;-77
2022/12/09 09:49:58;;;;;;;;;;;2.50;91.30;;;;;;5040882;28;19924;-77
2022/12/09 09:52:24;;;;;;;;;;;2.60;91.30;;;;;;5024158;28;19921;-77
2022/12/09 09:54:50;;;;;;;;;;;2.60;91.30;;;;;;5037528;28;19925;-78
2022/12/09 09:57:15;;;;;;;;;;;2.60;91.20;;;;;;5022522;28;19932;-78
2022/12/09 09:59:48;;;;;;;;;;;2.70;91.20;;;;;;5039843;28;19924;-77
2022/12/09 10:02:18;;;;;;;;;;;2.70;91.20;;;;;;5023940;28;20555;-78
2022/12/09 10:04:47;;;;;;;;;;;2.80;91.30;;;;;;5041663;28;20288;-78
2022/12/09 10:07:17;;;;;;;;;;;2.80;91.20;;;;;;5022295;28;19927;-78
2022/12/09 10:10:04;;;;;;;;;;;2.80;91.20;;;;;;5038440;28;19921;-78
2022/12/09 10:12:41;;;;;;;;;;;2.90;91.20;;;;;;5044889;28;20310;-76
2022/12/09 10:15:14;;;;;;;;;;;2.90;91.20;;;;;;5039668;28;19929;-78
2022/12/09 10:17:46;;;;;;;;;;;3.00;91.20;;;;;;5044333;28;19929;-79
2022/12/09 10:20:12;;;;;;;;;;;3.00;91.30;;;;;;5025028;28;19917;-77
2022/12/09 10:22:45;;;;;;;;;;;3.10;91.20;;;;;;5042412;28;19917;-78
2022/12/09 10:25:21;;;;;;;;;;;3.10;91.30;;;;;;5020675;28;20335;-78
2022/12/09 10:27:49;;;;;;;;;;;3.30;91.30;;;;;;5043232;28;19981;-78
2022/12/09 10:30:17;;;;;;;;;;;3.40;91.30;;;;;;5004275;28;20858;-78
2022/12/09 10:32:43;;;;;;;;;;;3.40;91.20;;;;;;5044630;28;19925;-78
2022/12/09 10:35:12;;;;;;;;;;;3.50;91.20;;;;;;5039436;28;19921;-79
2022/12/09 10:37:37;;;;;;;;;;;3.40;91.10;;;;;;5044492;28;19921;-77
2022/12/09 10:40:06;;;;;;;;;;;3.50;91.10;;;;;;5040960;28;19944;-78
2022/12/09 10:45:17;;;;;;;;;;;3.50;91.00;;;;;;5022020;28;19952;-78
2022/12/09 10:47:47;;;;;;;;;;;3.50;91.00;;;;;;5041338;28;19947;-79
2022/12/09 10:50:22;;;;;;;;;;;3.50;91.00;;;;;;5040055;28;19992;-78
2022/12/09 10:52:47;;;;;;;;;;;3.50;91.00;;;;;;5044876;28;20567;-77
2022/12/09 10:55:20;;;;;;;;;;;3.60;91.10;;;;;;5039734;28;19920;-79
2022/12/09 10:57:46;;;;;;;;;;;3.60;91.10;;;;;;5025210;28;20009;-78
2022/12/09 11:00:21;;;;;;;;;;;3.60;91.10;;;;;;5049243;28;20184;-78
2022/12/09 11:02:52;;;;;;;;;;;3.60;91.00;;;;;;5045201;28;19931;-78
2022/12/09 11:05:20;;;;;;;;;;;3.60;91.00;;;;;;5047996;28;19960;-76
2022/12/09 11:07:46;;;;;;;;;;;3.70;91.10;;;;;;5046113;28;19921;-78
2022/12/09 11:10:16;;;;;;;;;;;3.70;91.00;;;;;;5044977;28;19925;-77
2022/12/09 11:12:41;;;;;;;;;;;3.70;91.00;;;;;;5029268;28;19975;-78
2022/12/09 11:15:25;;;;;;;;;;;3.80;91.00;;;;;;5025887;28;19929;-78
2022/12/09 11:17:55;;;;;;;;;;;3.80;91.00;;;;;;5049353;28;19939;-77
2022/12/09 11:20:21;;;;;;;;;;;3.80;91.00;;;;;;5025011;28;19928;-79
2022/12/09 11:23:12;;;;;;;;;;;3.90;91.00;;;;;;5031134;28;20039;-79
2022/12/09 11:25:40;;;;;;;;;;;3.90;91.00;;;;;;5047461;28;19925;-80
2022/12/09 11:28:15;;;;;;;;;;;4.00;91.00;;;;;;5052434;28;19977;-77
2022/12/09 11:30:54;;;;;;;;;;;4.00;91.00;;;;;;5056275;28;19921;-79
2022/12/09 11:33:22;;;;;;;;;;;4.10;90.90;;;;;;5051019;28;19921;-77
2022/12/09 11:35:47;;;;;;;;;;;4.10;90.90;;;;;;5052813;28;19979;-73
2022/12/09 11:38:51;;;;;;;;;;;4.10;91.20;;;;;;5009149;28;19960;-75
2022/12/09 11:44:17;;;;;;;;;;;4.10;90.90;;;;;;4957704;28;19960;-78
2022/12/09 11:46:42;;;;;;;;;;;4.20;90.90;;;;;;4940389;28;19926;-79
2022/12/09 11:49:15;;;;;;;;;;;4.20;90.80;;;;;;4969883;28;19990;-79
2022/12/09 11:51:41;;;;;;;;;;;4.20;90.80;;;;;;4944510;28;19986;-78
2022/12/09 11:54:13;;;;;;;;;;;4.20;90.80;;;;;;4949358;28;19922;-79
2022/12/09 11:56:38;;;;;;;;;;;4.30;90.90;;;;;;4951816;28;19922;-78
2022/12/09 11:59:05;;;;;;;;;;;4.30;90.80;;;;;;4969128;28;19918;-77
2022/12/09 12:01:37;;;;;;;;;;;4.30;90.80;;;;;;4966345;28;19921;-78
2022/12/09 12:04:06;;;;;;;;;;;4.40;90.80;;;;;;4946185;28;19940;-79
2022/12/09 12:06:40;;;;;;;;;;;4.30;90.80;;;;;;4961023;28;19951;-77
2022/12/09 12:09:26;;;;;;;;;;;4.40;90.80;;;;;;4950855;28;19922;-77
2022/12/09 12:12:08;;;;;;;;;;;4.40;90.80;;;;;;4951297;28;20383;-79
2022/12/09 12:14:34;;;;;;;;;;;4.40;90.80;;;;;;4969397;28;20001;-78
2022/12/09 12:17:16;;;;;;;;;;;4.50;90.80;;;;;;4991962;28;19959;-78
2022/12/09 12:19:42;;;;;;;;;;;4.50;90.70;;;;;;5046062;28;19920;-78
2022/12/09 12:22:07;;;;;;;;;;;4.50;90.70;;;;;;5027693;28;19940;-77
2022/12/09 12:24:51;;;;;;;;;;;4.50;90.70;;;;;;5048030;28;20257;-77
2022/12/09 12:27:30;;;;;;;;;;;4.50;90.70;;;;;;5050448;28;19924;-79
2022/12/09 12:29:57;;;;;;;;;;;4.50;90.60;;;;;;5052259;28;20379;-77
2022/12/09 12:32:25;;;;;;;;;;;4.60;90.60;;;;;;5057064;28;19952;-79
2022/12/09 12:34:54;;;;;;;;;;;4.60;90.60;;;;;;5038681;28;19913;-78
2022/12/09 12:37:22;;;;;;;;;;;4.60;90.60;;;;;;5051355;28;19916;-78
2022/12/09 12:39:48;;;;;;;;;;;4.60;90.60;;;;;;5060488;28;20367;-77
2022/12/09 12:42:18;;;;;;;;;;;4.60;90.60;;;;;;5037804;28;19944;-79
2022/12/09 12:54:03;;;;;;;;;;;4.60;90.60;;;;;;5013589;28;19921;-77
2022/12/09 12:56:30;;;;;;;;;;;4.60;90.60;;;;;;5029343;28;19935;-78
2022/12/09 12:58:55;;;;;;;;;;;4.60;90.60;;;;;;5036220;28;19917;-78
2022/12/09 13:01:35;;;;;;;;;;;4.60;90.60;;;;;;5051074;28;19970;-78
2022/12/09 13:04:15;;;;;;;;;;;4.60;90.60;;;;;;5053588;28;19988;-77
2022/12/09 13:06:59;;;;;;;;;;;4.60;90.60;;;;;;5053036;28;19956;-77
2022/12/09 13:09:35;;;;;;;;;;;4.60;90.60;;;;;;5032581;28;19916;-77
2022/12/09 13:12:14;;;;;;;;;;;4.60;90.60;;;;;;5050195;28;19921;-78
2022/12/09 13:14:51;;;;;;;;;;;4.60;90.60;;;;;;5031660;28;19924;-79
2022/12/09 13:17:16;;;;;;;;;;;4.50;90.60;;;;;;5029999;28;19933;-77
2022/12/09 13:19:43;;;;;;;;;;;4.50;90.60;;;;;;5056360;28;19927;-77
2022/12/09 13:22:23;;;;;;;;;;;4.50;90.60;;;;;;5033431;28;19931;-76
2022/12/09 13:24:54;;;;;;;;;;;4.50;90.60;;;;;;5058346;28;19959;-76
2022/12/09 13:27:25;;;;;;;;;;;4.40;90.60;;;;;;5050414;28;19929;-78
2022/12/09 13:29:51;;;;;;;;;;;4.40;90.60;;;;;;5050285;28;19921;-78
2022/12/09 13:32:35;;;;;;;;;;;4.40;90.60;;;;;;5055316;28;19921;-79
2022/12/09 13:35:20;;;;;;;;;;;4.40;90.60;;;;;;5052432;28;19920;-79
2022/12/09 13:37:45;;;;;;;;;;;4.40;90.60;;;;;;5055087;28;19935;-78
2022/12/09 13:40:20;;;;;;;;;;;4.40;90.60;;;;;;5054423;28;19920;-77
2022/12/09 13:42:52;;;;;;;;;;;4.40;90.60;;;;;;5056180;28;19913;-78
2022/12/09 13:45:23;;;;;;;;;;;4.40;90.60;;;;;;5038410;28;19966;-77
2022/12/09 13:47:52;;;;;;;;;;;4.40;90.60;;;;;;5051498;28;19917;-78
2022/12/09 13:50:21;;;;;;;;;;;4.40;90.60;;;;;;5033842;28;19948;-79
2022/12/09 13:52:47;;;;;;;;;;;4.50;90.60;;;;;;5055599;28;19917;-78
2022/12/09 13:55:22;;;;;;;;;;;4.40;90.60;;;;;;5019797;28;19921;-77
2022/12/09 13:58:07;;;;;;;;;;;4.40;90.60;;;;;;5038126;28;19932;-78
2022/12/09 14:00:32;;;;;;;;;;;4.40;90.60;;;;;;5052099;28;20047;-78
2022/12/09 14:02:59;;;;;;;;;;;4.40;90.60;;;;;;5054623;28;20268;-78
2022/12/09 14:05:25;;;;;;;;;;;4.40;90.60;;;;;;5034502;28;19925;-78
2022/12/09 14:07:52;;;;;;;;;;;4.40;90.60;;;;;;5051496;28;19917;-76
2022/12/09 14:10:33;;;;;;;;;;;4.40;90.60;;;;;;5048762;28;19920;-77
2022/12/09 14:12:58;;;;;;;;;;;4.40;90.60;;;;;;5053750;28;19917;-78
2022/12/09 14:15:24;;;;;;;;;;;4.40;90.60;;;;;;5046513;28;19929;-78
2022/12/09 14:17:49;;;;;;;;;;;4.40;90.60;;;;;;5034672;28;19920;-78
2022/12/09 14:20:22;;;;;;;;;;;4.40;90.60;;;;;;5047034;28;19925;-79
2022/12/09 14:23:11;;;;;;;;;;;4.40;90.90;;;;;;5046846;28;19968;-78
2022/12/09 14:25:36;;;;;;;;;;;4.40;90.60;;;;;;5045147;28;19921;-78
2022/12/09 14:28:11;;;;;;;;;;;4.30;90.50;;;;;;5062303;28;20016;-77
2022/12/09 14:30:36;;;;;;;;;;;4.40;90.60;;;;;;5055337;28;19917;-78
2022/12/09 14:33:02;;;;;;;;;;;4.30;90.50;;;;;;5049393;28;19958;-78
2022/12/09 14:35:27;;;;;;;;;;;4.30;90.50;;;;;;5057457;28;19917;-77
2022/12/09 14:37:59;;;;;;;;;;;4.30;90.60;;;;;;5058035;28;19978;-78
2022/12/09 14:40:43;;;;;;;;;;;4.30;90.50;;;;;;5038240;28;19923;-78
2022/12/09 14:43:26;;;;;;;;;;;4.30;90.50;;;;;;5055396;28;19927;-77
2022/12/09 14:45:53;;;;;;;;;;;4.30;90.60;;;;;;5041506;28;20355;-77
2022/12/09 14:48:20;;;;;;;;;;;4.20;90.50;;;;;;5058216;28;19972;-76
2022/12/09 14:50:46;;;;;;;;;;;4.20;90.50;;;;;;5060568;28;19952;-79